createdAt,value
2022-11-28T00:00:46.164Z,25.79
2022-11-28T00:02:46.314Z,25.75
2022-11-28T00:04:46.208Z,25.75
2022-11-28T00:06:46.150Z,25.77
2022-11-28T00:08:46.165Z,25.86
2022-11-28T00:10:46.212Z,25.82
2022-11-28T00:12:46.094Z,25.88
2022-11-28T00:14:46.214Z,25.79
2022-11-28T00:16:46.221Z,25.81
2022-11-28T00:18:46.258Z,25.81
2022-11-28T00:20:46.238Z,25.82
2022-11-28T00:22:46.180Z,25.80
2022-11-28T00:24:46.159Z,25.82
2022-11-28T00:26:46.202Z,25.84
2022-11-28T00:28:46.188Z,25.85
2022-11-28T00:30:46.210Z,25.81
2022-11-28T00:32:46.184Z,25.84
2022-11-28T00:34:46.211Z,25.86
2022-11-28T00:36:46.245Z,25.84
2022-11-28T00:38:46.123Z,25.80
2022-11-28T00:40:46.204Z,25.82
2022-11-28T00:42:46.252Z,25.80
2022-11-28T00:44:46.242Z,25.90
2022-11-28T00:46:46.168Z,25.90
2022-11-28T00:48:46.251Z,25.92
2022-11-28T00:50:46.254Z,25.80
2022-11-28T00:52:46.146Z,25.83
2022-11-28T00:54:46.240Z,25.83
2022-11-28T00:56:46.225Z,25.91
2022-11-28T00:58:46.263Z,25.83
2022-11-28T01:00:46.343Z,25.90
2022-11-28T01:02:46.298Z,25.81
2022-11-28T01:04:46.251Z,25.84
2022-11-28T01:06:46.232Z,25.82
2022-11-28T01:08:46.266Z,25.80
2022-11-28T01:10:46.164Z,25.80
2022-11-28T01:12:46.279Z,25.83
2022-11-28T01:14:46.283Z,25.81
2022-11-28T01:16:46.287Z,25.83
2022-11-28T01:18:46.115Z,25.80
2022-11-28T01:20:46.270Z,25.80
2022-11-28T01:22:46.167Z,25.52
2022-11-28T01:24:46.300Z,25.79
2022-11-28T01:26:46.291Z,25.80
2022-11-28T01:28:46.289Z,25.82
2022-11-28T01:30:46.328Z,25.80
2022-11-28T01:32:46.216Z,25.81
2022-11-28T01:34:46.282Z,25.80
2022-11-28T01:36:46.296Z,25.80
2022-11-28T01:38:46.131Z,25.90
2022-11-28T01:40:46.264Z,25.80
2022-11-28T01:42:46.140Z,25.86
2022-11-28T01:44:46.304Z,25.78
2022-11-28T01:46:46.212Z,25.72
2022-11-28T01:48:46.093Z,25.63
2022-11-28T01:50:46.281Z,25.65
2022-11-28T01:52:46.292Z,25.52
2022-11-28T01:54:46.339Z,25.60
2022-11-28T01:56:46.333Z,25.63
2022-11-28T01:58:46.267Z,25.60
2022-11-28T02:00:46.376Z,25.60
2022-11-28T02:02:46.185Z,25.80
2022-11-28T02:04:46.233Z,25.75
2022-11-28T02:06:46.178Z,25.65
2022-11-28T02:08:46.225Z,25.65
2022-11-28T02:10:46.190Z,25.65
2022-11-28T02:12:46.308Z,25.65
2022-11-28T02:14:46.403Z,25.74
2022-11-28T02:16:46.458Z,25.74
2022-11-28T02:18:50.451Z,25.75
2022-11-28T02:20:46.347Z,25.88
2022-11-28T02:22:46.350Z,25.77
2022-11-28T02:24:46.327Z,25.79
2022-11-28T02:26:46.340Z,25.73
2022-11-28T02:28:46.272Z,25.80
2022-11-28T02:30:46.358Z,25.78
2022-11-28T02:32:46.361Z,25.75
2022-11-28T02:34:47.255Z,25.78
2022-11-28T02:36:46.434Z,25.84
2022-11-28T02:38:46.361Z,25.80
2022-11-28T02:40:46.345Z,25.84
2022-11-28T02:42:46.374Z,25.82
2022-11-28T02:44:46.338Z,25.83
2022-11-28T02:46:46.475Z,25.91
2022-11-28T02:48:46.375Z,25.85
2022-11-28T02:50:46.381Z,25.91
2022-11-28T02:52:46.389Z,25.81
2022-11-28T02:54:46.398Z,25.80
2022-11-28T02:56:46.379Z,25.83
2022-11-28T02:58:46.335Z,25.84
2022-11-28T03:00:46.464Z,25.84
2022-11-28T03:02:46.292Z,25.81
2022-11-28T03:04:46.262Z,25.84
2022-11-28T03:06:46.400Z,25.82
2022-11-28T03:08:46.379Z,25.91
2022-11-28T03:10:46.399Z,25.80
2022-11-28T03:12:46.398Z,25.83
2022-11-28T03:14:46.401Z,25.81
2022-11-28T03:16:46.447Z,25.90
2022-11-28T03:18:46.395Z,25.81
2022-11-28T03:20:46.387Z,25.80
2022-11-28T03:22:46.415Z,25.79
2022-11-28T03:24:46.302Z,25.90
2022-11-28T03:26:46.345Z,25.89
2022-11-28T03:28:46.309Z,25.80
2022-11-28T03:30:46.322Z,25.79
2022-11-28T03:32:46.501Z,25.72
2022-11-28T03:34:46.431Z,25.75
2022-11-28T03:36:46.468Z,25.78
2022-11-28T03:38:46.376Z,25.75
2022-11-28T03:40:46.267Z,25.75
2022-11-28T03:42:46.435Z,25.79
2022-11-28T03:44:46.402Z,25.79
2022-11-28T03:46:46.502Z,25.88
2022-11-28T03:48:46.341Z,25.84
2022-11-28T03:50:46.396Z,25.77
2022-11-28T03:52:46.445Z,25.78
2022-11-28T03:54:46.433Z,25.83
2022-11-28T03:56:46.437Z,25.78
2022-11-28T03:58:46.414Z,25.74
2022-11-28T04:00:46.493Z,25.77
2022-11-28T04:02:46.486Z,25.84
2022-11-28T04:04:46.456Z,25.80
2022-11-28T04:06:46.418Z,25.80
2022-11-28T04:08:46.472Z,25.88
2022-11-28T04:10:46.499Z,25.80
2022-11-28T04:12:46.387Z,25.89
2022-11-28T04:14:46.467Z,25.82
2022-11-28T04:16:52.186Z,25.78
2022-11-28T04:18:46.454Z,25.80
2022-11-28T04:20:46.545Z,25.80
2022-11-28T04:22:46.337Z,25.80
2022-11-28T04:24:46.355Z,25.90
2022-11-28T04:26:46.480Z,25.80
2022-11-28T04:28:46.478Z,25.80
2022-11-28T04:30:46.457Z,25.90
2022-11-28T04:32:46.489Z,25.82
2022-11-28T04:34:46.383Z,25.81
2022-11-28T04:36:46.418Z,25.81
2022-11-28T04:38:46.387Z,25.88
2022-11-28T04:40:46.459Z,25.90
2022-11-28T04:42:51.323Z,25.94
2022-11-28T04:44:46.484Z,25.86
2022-11-28T04:46:46.517Z,25.80
2022-11-28T04:48:46.470Z,25.90
2022-11-28T04:50:46.446Z,25.82
2022-11-28T04:52:46.519Z,25.83
2022-11-28T04:54:46.530Z,25.83
2022-11-28T04:56:46.448Z,25.85
2022-11-28T04:58:46.522Z,25.82
2022-11-28T05:00:46.555Z,25.92
2022-11-28T05:02:46.502Z,25.80
2022-11-28T05:04:46.409Z,25.77
2022-11-28T05:06:46.501Z,25.83
2022-11-28T05:08:46.509Z,25.80
2022-11-28T05:10:46.535Z,25.80
2022-11-28T05:12:46.535Z,25.83
2022-11-28T05:14:46.530Z,25.80
2022-11-28T05:16:46.633Z,25.81
2022-11-28T05:18:46.546Z,25.78
2022-11-28T05:20:46.507Z,25.78
2022-11-28T05:22:46.541Z,25.79
2022-11-28T05:24:46.850Z,25.80
2022-11-28T05:26:46.525Z,25.80
2022-11-28T05:28:46.386Z,25.83
2022-11-28T05:30:46.531Z,25.85
2022-11-28T05:32:46.504Z,25.81
2022-11-28T05:34:46.384Z,25.82
2022-11-28T05:36:46.554Z,25.80
2022-11-28T05:38:46.414Z,25.85
2022-11-28T05:40:46.554Z,25.90
2022-11-28T05:42:46.571Z,25.79
2022-11-28T05:44:46.565Z,25.80
2022-11-28T05:46:46.505Z,25.81
2022-11-28T05:48:46.557Z,25.78
2022-11-28T05:50:46.589Z,25.85
2022-11-28T05:52:46.538Z,25.80
2022-11-28T05:54:46.557Z,25.88
2022-11-28T05:56:46.454Z,25.80
2022-11-28T05:58:46.646Z,25.86
2022-11-28T06:00:46.574Z,25.79
2022-11-28T06:02:46.420Z,25.80
2022-11-28T06:04:46.571Z,25.80
2022-11-28T06:06:46.534Z,25.78
2022-11-28T06:08:46.571Z,25.83
2022-11-28T06:10:46.684Z,25.79
2022-11-28T06:12:46.575Z,25.80
2022-11-28T06:14:46.549Z,25.77
2022-11-28T06:16:46.630Z,25.76
2022-11-28T06:18:46.733Z,25.81
2022-11-28T06:20:46.566Z,25.80
2022-11-28T06:22:46.552Z,25.82
2022-11-28T06:24:46.628Z,25.78
2022-11-28T06:26:46.600Z,25.81
2022-11-28T06:28:46.564Z,25.10
2022-11-28T06:30:46.502Z,24.84
2022-11-28T06:32:46.565Z,24.79
2022-11-28T06:34:46.608Z,24.72
2022-11-28T06:36:46.621Z,24.66
2022-11-28T06:38:46.561Z,24.61
2022-11-28T06:40:46.641Z,24.52
2022-11-28T06:42:46.488Z,24.59
2022-11-28T06:44:46.605Z,24.44
2022-11-28T06:46:46.599Z,24.39
2022-11-28T06:48:46.576Z,24.34
2022-11-28T06:50:46.557Z,24.35
2022-11-28T06:52:46.616Z,24.35
2022-11-28T06:54:46.597Z,24.27
2022-11-28T06:56:46.634Z,24.23
2022-11-28T06:58:46.657Z,24.21
2022-11-28T07:00:46.657Z,24.16
2022-11-28T07:02:46.653Z,24.20
2022-11-28T07:04:46.663Z,24.14
2022-11-28T07:06:46.524Z,24.11
2022-11-28T07:08:46.549Z,24.09
2022-11-28T07:10:46.497Z,24.10
2022-11-28T07:12:46.902Z,24.11
2022-11-28T07:14:46.501Z,24.09
2022-11-28T07:16:46.702Z,23.91
2022-11-28T07:18:46.569Z,24.01
2022-11-28T07:20:46.670Z,24.04
2022-11-28T07:22:46.590Z,24.10
2022-11-28T07:24:46.648Z,23.96
2022-11-28T07:26:46.684Z,23.98
2022-11-28T07:28:46.632Z,23.96
2022-11-28T07:30:46.663Z,23.96
2022-11-28T07:32:46.539Z,23.96
2022-11-28T07:34:50.118Z,23.95
2022-11-28T07:36:46.677Z,24.09
2022-11-28T07:38:46.713Z,24.05
2022-11-28T07:40:46.654Z,24.04
2022-11-28T07:42:46.684Z,24.09
2022-11-28T07:44:46.676Z,24.05
2022-11-28T07:46:46.810Z,24.04
2022-11-28T07:48:46.628Z,24.12
2022-11-28T07:50:46.579Z,24.22
2022-11-28T07:52:46.553Z,24.23
2022-11-28T07:54:46.653Z,24.14
2022-11-28T07:58:46.602Z,24.30
2022-11-28T08:00:46.674Z,24.29
2022-11-28T08:02:46.695Z,24.27
2022-11-28T08:04:51.555Z,24.32
2022-11-28T08:06:46.673Z,24.34
2022-11-28T08:08:46.765Z,24.40
2022-11-28T08:10:46.727Z,24.40
2022-11-28T08:12:46.674Z,24.44
2022-11-28T08:14:46.714Z,24.55
2022-11-28T08:16:46.802Z,24.63
2022-11-28T08:18:46.742Z,24.64
2022-11-28T08:20:46.686Z,24.79
2022-11-28T08:22:46.666Z,24.83
2022-11-28T08:24:46.716Z,24.94
2022-11-28T08:26:46.739Z,25.05
2022-11-28T08:28:46.707Z,25.15
2022-11-28T08:30:46.725Z,25.37
2022-11-28T08:32:46.698Z,25.75
2022-11-28T08:34:46.740Z,25.39
2022-11-28T08:36:46.743Z,25.75
2022-11-28T08:39:02.983Z,25.75
2022-11-28T08:40:46.736Z,25.78
2022-11-28T08:42:46.703Z,25.75
2022-11-28T08:44:46.752Z,25.72
2022-11-28T08:46:46.749Z,25.75
2022-11-28T08:48:46.728Z,25.65
2022-11-28T08:50:47.918Z,25.81
2022-11-28T08:52:46.779Z,25.65
2022-11-28T08:54:46.655Z,25.65
2022-11-28T08:56:46.679Z,25.64
2022-11-28T08:58:46.759Z,24.43
2022-11-28T09:00:46.756Z,25.75
2022-11-28T09:02:46.620Z,25.75
2022-11-28T09:04:46.735Z,25.75
2022-11-28T09:06:46.818Z,25.65
2022-11-28T09:08:46.789Z,25.75
2022-11-28T09:10:46.767Z,25.74
2022-11-28T09:12:46.724Z,25.80
2022-11-28T09:14:46.804Z,25.80
2022-11-28T09:16:46.729Z,25.83
2022-11-28T09:18:46.693Z,25.75
2022-11-28T09:20:46.807Z,25.53
2022-11-28T09:22:46.772Z,25.80
2022-11-28T09:24:46.797Z,25.72
2022-11-28T09:26:46.809Z,25.75
2022-11-28T09:28:46.724Z,25.75
2022-11-28T09:30:46.904Z,25.61
2022-11-28T09:32:46.751Z,25.80
2022-11-28T09:34:46.757Z,25.65
2022-11-28T09:36:46.796Z,25.79
2022-11-28T09:38:46.811Z,25.65
2022-11-28T09:40:46.654Z,25.75
2022-11-28T09:42:46.719Z,25.65
2022-11-28T09:44:46.849Z,25.63
2022-11-28T09:46:46.676Z,25.65
2022-11-28T09:48:46.821Z,25.65
2022-11-28T09:50:46.818Z,25.62
2022-11-28T09:52:46.728Z,25.62
2022-11-28T09:54:46.898Z,25.75
2022-11-28T09:56:46.833Z,25.60
2022-11-28T09:58:46.798Z,25.60
2022-11-28T10:00:49.285Z,25.54
2022-11-28T10:02:46.837Z,25.56
2022-11-28T10:04:46.832Z,25.63
2022-11-28T10:06:46.784Z,25.60
2022-11-28T10:08:46.721Z,25.62
2022-11-28T10:10:46.830Z,25.61
2022-11-28T10:12:46.692Z,25.58
2022-11-28T10:14:46.886Z,25.58
2022-11-28T10:16:47.007Z,25.72
2022-11-28T10:18:46.798Z,25.60
2022-11-28T10:20:46.824Z,25.55
2022-11-28T10:22:46.715Z,25.56
2022-11-28T10:24:46.867Z,25.33
2022-11-28T10:26:46.761Z,25.51
2022-11-28T10:28:46.800Z,25.53
2022-11-28T10:30:46.937Z,25.51
2022-11-28T10:32:46.736Z,25.58
2022-11-28T10:34:46.857Z,25.74
2022-11-28T10:36:46.867Z,25.52
2022-11-28T10:38:46.733Z,25.56
2022-11-28T10:40:46.737Z,25.56
2022-11-28T10:42:46.839Z,25.58
2022-11-28T10:44:46.769Z,25.57
2022-11-28T10:46:46.850Z,25.64
2022-11-28T10:48:46.848Z,25.77
2022-11-28T10:50:46.779Z,25.80
2022-11-28T10:52:46.872Z,25.75
2022-11-28T10:54:46.887Z,25.62
2022-11-28T10:56:46.829Z,25.54
2022-11-28T10:58:46.909Z,25.60
2022-11-28T11:00:46.815Z,25.79
2022-11-28T11:02:46.879Z,25.75
2022-11-28T11:04:46.849Z,25.61
2022-11-28T11:07:06.836Z,25.62
2022-11-28T11:08:46.866Z,25.63
2022-11-28T11:10:46.894Z,25.62
2022-11-28T11:12:46.743Z,25.72
2022-11-28T11:14:46.883Z,25.52
2022-11-28T11:16:46.893Z,25.52
2022-11-28T11:18:46.953Z,25.53
2022-11-28T11:20:46.958Z,25.28
2022-11-28T11:22:46.892Z,25.37
2022-11-28T11:24:46.933Z,25.44
2022-11-28T11:26:46.906Z,25.44
2022-11-28T11:28:46.936Z,25.56
2022-11-28T11:30:46.896Z,25.52
2022-11-28T11:32:51.247Z,25.63
2022-11-28T11:34:46.884Z,25.52
2022-11-28T11:36:46.917Z,25.40
2022-11-28T11:38:46.899Z,25.41
2022-11-28T11:40:46.824Z,25.37
2022-11-28T11:42:46.912Z,25.44
2022-11-28T11:44:46.825Z,25.52
2022-11-28T11:46:47.096Z,25.45
2022-11-28T11:48:46.948Z,25.51
2022-11-28T11:50:46.931Z,25.51
2022-11-28T11:52:46.915Z,25.58
2022-11-28T11:54:46.893Z,25.57
2022-11-28T11:56:46.957Z,25.65
2022-11-28T11:58:46.960Z,25.63
2022-11-28T12:00:46.942Z,25.64
2022-11-28T12:02:47.019Z,25.61
2022-11-28T12:04:51.111Z,25.53
2022-11-28T12:06:46.945Z,25.51
2022-11-28T12:08:46.939Z,25.52
2022-11-28T12:10:46.942Z,25.54
2022-11-28T12:12:46.822Z,25.52
2022-11-28T12:14:47.292Z,25.52
2022-11-28T12:16:46.961Z,25.49
2022-11-28T12:18:46.959Z,25.43
2022-11-28T12:20:46.948Z,25.43
2022-11-28T12:22:46.814Z,25.45
2022-11-28T12:24:47.396Z,25.46
2022-11-28T12:26:46.907Z,25.42
2022-11-28T12:28:46.780Z,25.46
2022-11-28T12:30:46.799Z,25.51
2022-11-28T12:32:46.997Z,25.37
2022-11-28T12:34:46.849Z,25.38
2022-11-28T12:36:47.036Z,25.52
2022-11-28T12:38:46.917Z,25.52
2022-11-28T12:40:46.848Z,25.49
2022-11-28T12:42:47.026Z,25.42
2022-11-28T12:44:46.932Z,25.47
2022-11-28T12:46:46.885Z,25.40
2022-11-28T12:48:52.848Z,25.37
2022-11-28T12:50:46.900Z,25.40
2022-11-28T12:52:46.954Z,25.24
2022-11-28T12:54:46.981Z,25.35
2022-11-28T12:56:47.041Z,25.27
2022-11-28T12:58:47.028Z,25.23
2022-11-28T13:00:46.977Z,25.23
2022-11-28T13:02:47.092Z,25.23
2022-11-28T13:04:47.216Z,25.27
2022-11-28T13:06:47.001Z,25.22
2022-11-28T13:08:49.061Z,25.38
2022-11-28T13:10:46.923Z,25.29
2022-11-28T13:12:46.867Z,25.29
2022-11-28T13:14:47.250Z,25.22
2022-11-28T13:16:47.115Z,25.09
2022-11-28T13:18:47.026Z,25.12
2022-11-28T13:20:47.036Z,25.19
2022-11-28T13:22:46.995Z,25.17
2022-11-28T13:24:47.577Z,25.15
2022-11-28T13:26:47.066Z,25.15
2022-11-28T13:28:47.011Z,25.48
2022-11-28T13:30:47.082Z,25.53
2022-11-28T13:32:47.049Z,25.65
2022-11-28T13:34:47.261Z,25.80
2022-11-28T13:39:03.224Z,25.61
2022-11-28T13:40:47.097Z,25.61
2022-11-28T13:43:02.973Z,25.56
2022-11-28T13:44:49.295Z,25.60
2022-11-28T13:46:47.023Z,25.52
2022-11-28T13:49:13.335Z,25.60
2022-11-28T13:50:47.107Z,25.52
2022-11-28T13:52:47.009Z,25.51
2022-11-28T13:54:47.410Z,25.53
2022-11-28T13:56:47.098Z,25.47
2022-11-28T13:58:47.069Z,25.39
2022-11-28T14:00:46.973Z,25.40
2022-11-28T14:02:47.194Z,25.52
2022-11-28T14:04:48.021Z,25.38
2022-11-28T14:06:46.944Z,25.36
2022-11-28T14:08:47.090Z,25.29
2022-11-28T14:10:47.052Z,25.31
2022-11-28T14:12:47.064Z,25.26
2022-11-28T14:14:47.437Z,25.23
2022-11-28T14:16:51.798Z,25.23
2022-11-28T14:18:56.703Z,25.23
2022-11-28T14:20:46.965Z,25.29
2022-11-28T14:22:47.071Z,25.28
2022-11-28T14:24:47.320Z,25.28
2022-11-28T14:26:47.114Z,25.21
2022-11-28T14:28:47.184Z,25.23
2022-11-28T14:30:47.066Z,25.29
2022-11-28T14:32:47.134Z,25.26
2022-11-28T14:34:47.426Z,25.32
2022-11-28T14:36:47.152Z,25.21
2022-11-28T14:38:47.128Z,25.24
2022-11-28T14:40:47.220Z,25.24
2022-11-28T14:43:00.582Z,25.24
2022-11-28T14:44:47.522Z,25.24
2022-11-28T14:46:47.009Z,25.15
2022-11-28T14:48:47.180Z,25.05
2022-11-28T14:50:47.145Z,24.94
2022-11-28T14:52:47.080Z,24.83
2022-11-28T14:54:47.354Z,24.81
2022-11-28T14:56:47.117Z,24.87
2022-11-28T14:58:47.064Z,24.76
2022-11-28T15:00:47.054Z,24.69
2022-11-28T15:02:47.297Z,24.62
2022-11-28T15:04:47.447Z,24.61
2022-11-28T15:06:47.170Z,24.57
2022-11-28T15:08:47.094Z,24.53
2022-11-28T15:10:47.135Z,24.49
2022-11-28T15:12:47.172Z,24.48
2022-11-28T15:14:47.260Z,24.39
2022-11-28T15:16:50.504Z,24.36
2022-11-28T15:18:47.124Z,24.34
2022-11-28T15:20:47.070Z,24.38
2022-11-28T15:22:47.168Z,24.25
2022-11-28T15:24:47.209Z,24.33
2022-11-28T15:26:47.198Z,24.21
2022-11-28T15:28:47.070Z,24.26
2022-11-28T15:30:47.025Z,24.14
2022-11-28T15:32:47.176Z,24.10
2022-11-28T15:34:47.194Z,24.09
2022-11-28T15:36:47.119Z,24.12
2022-11-28T15:38:47.152Z,24.04
2022-11-28T15:40:47.234Z,23.96
2022-11-28T15:42:47.334Z,24.00
2022-11-28T15:44:47.189Z,23.97
2022-11-28T15:46:47.254Z,24.04
2022-11-28T15:48:47.153Z,24.00
2022-11-28T15:50:47.150Z,23.96
2022-11-28T15:52:47.160Z,27.10
2022-11-28T15:54:47.279Z,26.71
2022-11-28T15:56:47.160Z,25.78
2022-11-28T15:58:47.171Z,25.80
2022-11-28T16:00:47.300Z,25.80
2022-11-28T16:02:47.166Z,25.83
2022-11-28T16:04:47.248Z,25.80
2022-11-28T16:06:47.183Z,25.83
2022-11-28T16:08:47.235Z,25.80
2022-11-28T16:10:47.256Z,25.80
2022-11-28T16:12:47.180Z,25.81
2022-11-28T16:14:47.163Z,25.80
2022-11-28T16:16:47.101Z,25.80
2022-11-28T16:18:47.270Z,25.80
2022-11-28T16:20:47.231Z,25.80
2022-11-28T16:22:47.139Z,25.81
2022-11-28T16:24:47.560Z,25.82
2022-11-28T16:26:47.250Z,25.82
2022-11-28T16:28:47.241Z,25.85
2022-11-28T16:30:47.248Z,25.83
2022-11-28T16:32:47.234Z,25.95
2022-11-28T16:34:47.164Z,25.91
2022-11-28T16:36:47.151Z,25.85
2022-11-28T16:38:48.857Z,25.86
2022-11-28T16:40:47.138Z,25.65
2022-11-28T16:42:47.260Z,25.82
2022-11-28T16:44:47.161Z,25.84
2022-11-28T16:46:47.202Z,25.81
2022-11-28T16:48:47.105Z,25.93
2022-11-28T16:50:47.102Z,25.90
2022-11-28T16:52:47.265Z,25.96
2022-11-28T16:54:47.258Z,25.84
2022-11-28T16:56:47.262Z,25.93
2022-11-28T16:58:47.139Z,25.85
2022-11-28T17:00:47.171Z,25.81
2022-11-28T17:02:47.267Z,25.82
2022-11-28T17:04:47.363Z,25.89
2022-11-28T17:06:47.280Z,25.80
2022-11-28T17:08:47.170Z,25.94
2022-11-28T17:10:47.118Z,25.84
2022-11-28T17:12:47.176Z,25.83
2022-11-28T17:14:47.221Z,25.82
2022-11-28T17:16:47.228Z,25.82
2022-11-28T17:18:47.258Z,25.90
2022-11-28T17:20:47.327Z,25.90
2022-11-28T17:22:47.333Z,25.83
2022-11-28T17:24:47.349Z,25.79
2022-11-28T17:26:47.133Z,25.91
2022-11-28T17:28:47.342Z,25.80
2022-11-28T17:30:47.280Z,25.79
2022-11-28T17:32:47.301Z,25.88
2022-11-28T17:34:47.287Z,25.80
2022-11-28T17:36:47.350Z,25.89
2022-11-28T17:38:47.128Z,25.80
2022-11-28T17:40:47.325Z,25.80
2022-11-28T17:42:47.209Z,25.80
2022-11-28T17:44:47.313Z,25.80
2022-11-28T17:46:47.183Z,25.80
2022-11-28T17:48:47.175Z,25.77
2022-11-28T17:50:47.325Z,25.80
2022-11-28T17:52:47.276Z,25.75
2022-11-28T17:54:47.292Z,25.83
2022-11-28T17:56:47.304Z,25.81
2022-11-28T17:58:47.228Z,25.80
2022-11-28T18:00:47.236Z,25.80
2022-11-28T18:02:47.330Z,25.81
2022-11-28T18:04:47.359Z,25.91
2022-11-28T18:06:47.174Z,25.78
2022-11-28T18:08:47.221Z,25.88
2022-11-28T18:10:47.325Z,25.89
2022-11-28T18:12:47.305Z,25.85
2022-11-28T18:14:47.348Z,25.80
2022-11-28T18:16:47.378Z,25.79
2022-11-28T18:18:47.431Z,25.78
2022-11-28T18:20:47.182Z,25.81
2022-11-28T18:22:47.239Z,25.85
2022-11-28T18:24:47.293Z,25.75
2022-11-28T18:26:47.385Z,25.80
2022-11-28T18:28:47.420Z,25.83
2022-11-28T18:30:47.345Z,25.80
2022-11-28T18:32:47.383Z,25.82
2022-11-28T18:34:47.376Z,25.77
2022-11-28T18:36:47.313Z,25.83
2022-11-28T18:38:47.384Z,25.79
2022-11-28T18:40:47.352Z,25.83
2022-11-28T18:42:47.367Z,25.75
2022-11-28T18:44:47.369Z,25.75
2022-11-28T18:46:47.452Z,25.86
2022-11-28T18:48:47.232Z,25.79
2022-11-28T18:50:47.356Z,25.77
2022-11-28T18:52:47.399Z,25.76
2022-11-28T18:54:47.399Z,25.80
2022-11-28T18:56:47.385Z,25.80
2022-11-28T18:58:47.433Z,25.80
2022-11-28T19:00:47.473Z,25.80
2022-11-28T19:02:47.344Z,25.78
2022-11-28T19:04:47.331Z,25.83
2022-11-28T19:06:47.422Z,25.85
2022-11-28T19:08:47.416Z,25.75
2022-11-28T19:10:47.360Z,25.84
2022-11-28T19:12:47.301Z,25.79
2022-11-28T19:14:47.273Z,25.72
2022-11-28T19:16:47.389Z,25.74
2022-11-28T19:18:47.389Z,25.75
2022-11-28T19:20:47.426Z,25.81
2022-11-28T19:22:47.306Z,25.82
2022-11-28T19:24:47.312Z,25.79
2022-11-28T19:26:47.435Z,25.81
2022-11-28T19:28:47.425Z,25.83
2022-11-28T19:30:47.296Z,25.88
2022-11-28T19:32:47.408Z,25.80
2022-11-28T19:34:47.330Z,25.76
2022-11-28T19:36:47.425Z,25.80
2022-11-28T19:38:47.446Z,25.75
2022-11-28T19:40:47.450Z,25.80
2022-11-28T19:42:47.445Z,25.75
2022-11-28T19:44:47.410Z,25.75
2022-11-28T19:46:47.406Z,25.84
2022-11-28T19:48:47.469Z,25.83
2022-11-28T19:50:47.455Z,25.84
2022-11-28T19:52:47.393Z,25.78
2022-11-28T19:54:47.446Z,25.80
2022-11-28T19:56:47.496Z,25.77
2022-11-28T19:58:47.404Z,25.77
2022-11-28T20:00:47.480Z,25.80
2022-11-28T20:02:47.487Z,25.75
2022-11-28T20:04:47.428Z,25.80
2022-11-28T20:06:47.498Z,25.72
2022-11-28T20:08:47.468Z,25.78
2022-11-28T20:10:47.467Z,25.75
2022-11-28T20:12:47.440Z,25.81
2022-11-28T20:14:47.487Z,25.72
2022-11-28T20:16:47.755Z,25.80
2022-11-28T20:18:47.431Z,25.75
2022-11-28T20:20:47.476Z,25.84
2022-11-28T20:22:47.485Z,25.82
2022-11-28T20:24:47.366Z,25.82
2022-11-28T20:26:47.492Z,25.86
2022-11-28T20:28:47.433Z,25.88
2022-11-28T20:30:47.492Z,25.84
2022-11-28T20:32:47.487Z,25.85
2022-11-28T20:34:47.517Z,25.84
2022-11-28T20:36:47.529Z,25.93
2022-11-28T20:38:47.458Z,25.82
2022-11-28T20:40:47.444Z,25.84
2022-11-28T20:42:47.359Z,25.85
2022-11-28T20:44:47.442Z,25.84
2022-11-28T20:46:47.490Z,25.84
2022-11-28T20:48:47.343Z,25.80
2022-11-28T20:50:47.395Z,25.80
2022-11-28T20:52:47.479Z,25.78
2022-11-28T20:54:47.649Z,25.89
2022-11-28T20:57:19.099Z,25.86
2022-11-28T20:58:47.505Z,25.86
2022-11-28T21:00:47.479Z,25.93
2022-11-28T21:02:47.525Z,25.83
2022-11-28T21:04:47.442Z,25.86
2022-11-28T21:06:47.477Z,25.84
2022-11-28T21:08:47.471Z,25.83
2022-11-28T21:10:47.389Z,25.85
2022-11-28T21:12:47.830Z,25.79
2022-11-28T21:14:50.686Z,25.82
2022-11-28T21:16:48.815Z,25.81
2022-11-28T21:18:47.558Z,25.80
2022-11-28T21:20:47.495Z,25.81
2022-11-28T21:22:47.438Z,25.84
2022-11-28T21:24:47.580Z,25.81
2022-11-28T21:26:52.979Z,25.85
2022-11-28T21:28:47.530Z,25.83
2022-11-28T21:30:47.578Z,25.86
2022-11-28T21:32:47.543Z,25.80
2022-11-28T21:34:47.589Z,25.86
2022-11-28T21:36:47.575Z,25.86
2022-11-28T21:38:47.536Z,25.97
2022-11-28T21:40:47.470Z,25.86
2022-11-28T21:42:47.578Z,25.95
2022-11-28T21:44:47.594Z,25.93
2022-11-28T21:46:47.526Z,25.92
2022-11-28T21:48:47.488Z,25.91
2022-11-28T21:50:47.588Z,25.81
2022-11-28T21:52:47.589Z,25.86
2022-11-28T21:54:47.571Z,25.84
2022-11-28T21:56:47.508Z,25.85
2022-11-28T21:58:47.584Z,25.86
2022-11-28T22:00:53.569Z,25.83
2022-11-28T22:02:47.573Z,25.79
2022-11-28T22:04:47.698Z,25.88
2022-11-28T22:06:47.589Z,25.97
2022-11-28T22:08:47.571Z,25.80
2022-11-28T22:10:47.503Z,25.78
2022-11-28T22:12:47.600Z,25.89
2022-11-28T22:14:47.746Z,25.89
2022-11-28T22:16:47.609Z,25.85
2022-11-28T22:18:47.610Z,25.85
2022-11-28T22:20:51.641Z,25.85
2022-11-28T22:22:47.626Z,25.84
2022-11-28T22:24:47.800Z,25.89
2022-11-28T22:26:47.523Z,25.94
2022-11-28T22:28:53.197Z,25.80
2022-11-28T22:30:47.609Z,25.93
2022-11-28T22:32:47.624Z,25.86
2022-11-28T22:34:47.463Z,25.83
2022-11-28T22:36:47.597Z,25.85
2022-11-28T22:38:47.651Z,25.88
2022-11-28T22:40:47.651Z,25.94
2022-11-28T22:42:47.594Z,25.86
2022-11-28T22:44:47.477Z,25.85
2022-11-28T22:46:47.622Z,25.84
2022-11-28T22:48:47.656Z,25.92
2022-11-28T22:50:47.653Z,25.90
2022-11-28T22:52:47.642Z,25.82
2022-11-28T22:54:47.645Z,25.83
2022-11-28T22:56:47.668Z,25.81
2022-11-28T22:58:47.791Z,25.90
2022-11-28T23:00:47.605Z,25.80
2022-11-28T23:02:47.677Z,25.83
2022-11-28T23:04:47.658Z,25.93
2022-11-28T23:06:47.625Z,25.81
2022-11-28T23:08:47.560Z,25.83
2022-11-28T23:10:47.544Z,25.81
2022-11-28T23:12:47.698Z,25.80
2022-11-28T23:14:47.494Z,25.85
2022-11-28T23:16:47.701Z,26.04
2022-11-28T23:18:47.664Z,25.83
2022-11-28T23:20:47.621Z,25.82
2022-11-28T23:22:47.675Z,25.83
2022-11-28T23:24:47.521Z,25.85
2022-11-28T23:26:47.674Z,25.80
2022-11-28T23:28:47.678Z,25.80
2022-11-28T23:30:47.668Z,25.86
2022-11-28T23:32:47.677Z,25.83
2022-11-28T23:34:47.665Z,25.83
2022-11-28T23:36:47.660Z,25.93
2022-11-28T23:38:47.728Z,25.83
2022-11-28T23:40:47.728Z,25.83
2022-11-28T23:42:47.603Z,25.83
2022-11-28T23:44:47.713Z,25.83
2022-11-28T23:46:47.547Z,25.92
2022-11-28T23:48:47.699Z,25.83
2022-11-28T23:50:47.722Z,25.82
2022-11-28T23:52:47.697Z,25.88
2022-11-28T23:54:47.585Z,25.79
2022-11-28T23:56:47.710Z,25.82
2022-11-28T23:58:47.709Z,25.84
